Humidity-temperature Sensor

Selected Measurement Type: Air Temperature

 
Air Temperature [°C]     6 entries per hour
Showing data from 1/30/2021 (00:00:00 Z) to 1/27/2021 (00:01:00 Z)
Previous Next [ Day | 3-Days | 7-Days ]
First Last
Prev [ Day | 3-Days | 7-Days ] Next
First Last

Start Time:     :
End Time:     :     
Time (in GMT) :00 :50 :40 :30 :20 :10
Previous Next [ Day | 3-Days | 7-Days ]
First Last
Prev [ Day | 3-Days | 7-Days ] Next
First Last


123 => good data
MM => data is determined as missing
-- => data not received/configured
Back to Top Back to Top
1/30/2021 00:00 to 23:10 25.46 25.54 25.54 25.54 25.50 25.61
1/29/2021 23:00 to 22:10 25.72 25.76 25.73 25.76 25.63 25.49
1/29/2021 22:00 to 21:10 25.64 25.53 25.54 25.49 25.35 25.40
1/29/2021 21:00 to 20:10 25.28 25.42 25.31 25.22 25.22 25.03
1/29/2021 20:00 to 19:10 25.16 25.33 25.48 25.49 25.50 25.48
1/29/2021 19:00 to 18:10 25.49 25.42 25.52 25.53 25.44 25.62
1/29/2021 18:00 to 17:10 25.52 25.67 25.68 25.70 25.68 25.74
1/29/2021 17:00 to 16:10 25.73 26.04 25.94 25.97 26.10 26.01
1/29/2021 16:00 to 15:10 26.00 25.95 25.89 25.66 25.70 25.41
1/29/2021 15:00 to 14:10 25.44 25.37 25.19 25.02 25.01 24.95
1/29/2021 14:00 to 13:10 24.85 24.85 24.83 24.83 24.77 24.81
1/29/2021 13:00 to 12:10 24.72 24.65 24.60 24.59 24.64 24.55
1/29/2021 12:00 to 11:10 24.55 24.67 24.67 24.60 24.62 24.59
1/29/2021 11:00 to 10:10 24.59 24.52 24.56 24.63 24.61 24.56
1/29/2021 10:00 to 9:10 24.62 24.59 24.60 24.56 24.57 24.57
1/29/2021 09:00 to 8:10 24.63 24.47 24.66 24.70 24.64 24.68
1/29/2021 08:00 to 7:10 24.61 24.80 24.67 24.73 24.71 24.80
1/29/2021 07:00 to 6:10 24.88 24.86 24.87 24.75 24.90 24.90
1/29/2021 06:00 to 5:10 24.92 24.94 24.93 24.96 24.96 25.00
1/29/2021 05:00 to 4:10 25.06 24.96 24.99 24.96 25.02 25.00
1/29/2021 04:00 to 3:10 25.03 25.00 24.94 25.01 25.01 25.02
1/29/2021 03:00 to 2:10 25.10 25.07 24.97 25.05 24.97 25.02
1/29/2021 02:00 to 1:10 25.08 25.00 25.09 25.03 25.02 25.01
1/29/2021 01:00 to 0:10 25.10 25.09 25.07 25.07 25.16 25.24
1/29/2021 00:00 to 23:10 25.35 25.59 25.68 25.57 25.61 25.51
1/28/2021 23:00 to 22:10 25.52 25.49 25.45 25.52 25.38 25.36
1/28/2021 22:00 to 21:10 25.34 25.29 25.31 25.31 25.26 25.29
1/28/2021 21:00 to 20:10 25.26 25.24 25.19 25.30 25.31 25.26
1/28/2021 20:00 to 19:10 25.31 25.26 25.28 25.34 25.44 25.37
1/28/2021 19:00 to 18:10 25.36 25.43 25.40 25.48 25.48 25.49
1/28/2021 18:00 to 17:10 25.53 25.56 25.61 25.66 25.64 25.69
1/28/2021 17:00 to 16:10 25.62 25.70 25.67 25.58 25.34 25.37
1/28/2021 16:00 to 15:10 25.26 25.19 25.22 25.08 24.98 24.86
1/28/2021 15:00 to 14:10 24.80 24.78 24.83 24.91 24.80 24.76
1/28/2021 14:00 to 13:10 24.76 24.92 24.85 24.69 24.56 24.49
1/28/2021 13:00 to 12:10 24.57 24.45 24.52 24.51 24.46 24.45
1/28/2021 12:00 to 11:10 24.55 24.51 24.52 24.48 24.45 24.51
1/28/2021 11:00 to 10:10 24.53 24.53 24.55 24.56 24.57 24.57
1/28/2021 10:00 to 9:10 24.49 24.54 24.62 24.61 24.65 24.72
1/28/2021 09:00 to 8:10 24.67 24.81 24.75 24.83 24.80 24.84
1/28/2021 08:00 to 7:10 24.90 24.88 24.89 24.75 24.84 24.67
1/28/2021 07:00 to 6:10 24.83 25.04 24.83 25.00 24.86 24.98
1/28/2021 06:00 to 5:10 25.01 24.94 24.94 24.94 25.04 25.00
1/28/2021 05:00 to 4:10 25.02 25.03 25.06 25.10 25.14 25.14
1/28/2021 04:00 to 3:10 25.10 25.07 24.99 25.11 24.80 24.71
1/28/2021 03:00 to 2:10 24.51 24.56 24.65 24.69 24.68 24.73
1/28/2021 02:00 to 1:10 24.72 25.12 24.90 24.87 24.78 24.67
1/28/2021 01:00 to 0:10 24.55 24.78 24.72 24.52 24.92 24.92
1/28/2021 00:00 to 23:10 25.19 25.10 24.95 24.78 25.13 25.07
1/27/2021 23:00 to 22:10 25.26 25.29 25.34 25.40 25.42 25.40
1/27/2021 22:00 to 21:10 25.45 25.28 25.20 25.24 25.20 25.27
1/27/2021 21:00 to 20:10 25.25 25.18 25.27 25.23 25.19 25.25
1/27/2021 20:00 to 19:10 25.24 25.17 25.27 25.23 25.19 25.43
1/27/2021 19:00 to 18:10 25.47 25.27 25.36 25.51 25.51 25.53
1/27/2021 18:00 to 17:10 25.42 25.64 25.64 25.69 25.65 25.61
1/27/2021 17:00 to 16:10 25.75 25.65 25.84 25.85 25.90 25.85
1/27/2021 16:00 to 15:10 25.79 25.76 25.75 25.77 25.62 25.63
1/27/2021 15:00 to 14:10 25.52 25.52 25.35 25.29 25.29 25.28
1/27/2021 14:00 to 13:10 25.28 25.23 25.13 25.16 25.08 24.92
1/27/2021 13:00 to 12:10 25.04 24.86 24.94 24.91 24.92 24.87
1/27/2021 12:00 to 11:10 24.82 24.97 25.00 24.92 24.94 24.95
1/27/2021 11:00 to 10:10 24.99 24.91 24.96 24.84 24.98 25.00
1/27/2021 10:00 to 9:10 24.98 24.97 25.00 25.03 24.97 24.99
1/27/2021 09:00 to 8:10 25.01 25.05 24.99 24.88 24.95 25.03
1/27/2021 08:00 to 7:10 24.95 24.98 24.97 25.05 25.01 24.98
1/27/2021 07:00 to 6:10 24.92 25.00 25.01 25.04 25.06 25.10
1/27/2021 06:00 to 5:10 25.08 25.17 25.00 25.09 24.99 24.97
1/27/2021 05:00 to 4:10 25.23 25.07 25.11 25.04 25.01 25.02
1/27/2021 04:00 to 3:10 24.95 25.07 25.01 24.89 24.81 24.86
1/27/2021 03:00 to 2:10 24.63 24.53 24.19 24.55 24.53 24.60
1/27/2021 02:00 to 1:10 25.26 25.25 25.32 25.22 25.19 25.19
1/27/2021 01:00 to 0:10 25.27 25.18 25.25 25.24 25.20 25.21